Kealia, Hawaii
Current Conditions -  °F | °C
As of 9:53 AM on Thursday 18 Dec 2014 (Local Time) from PHLI Reporting Station
Scattered Clouds Scattered Clouds  
Wind Chill: 79°   Ceiling: Unl
Heat Index: 81°   Visibility: 10mi
Dew Point: 66°   Wind: 17mph
Humidity: 64%   Direction: 70°ENE
Pressure: 30.21"   Gusts: NA
Location:  22.09°N, 159.44°W
Report Text: PHLI 181953Z 07015KT 10SM FEW023 SCT032 26/19 A3021 RMK AO2 SLP227 T02610189
Loading
Personal Weather Stations






























Interactive Weather Map New forecast layout! Learn more

10-Day Weather Forecast

Advertisements
Track Severe Weather on mobile